Fort Worth Meacham International Airport
KFTW : now visible

Airfield :











YOU CAN JOIN US ON...

 
LOGIN :

Register | Disclaimer

   EN    FR    IT 

 









Legend :    VFR   Marginal VFR   IFR   Intensive IFR   Very Intensive IFR
Visi :
Ceiling :
>= 8 km
>= 3000ft
5 to 8 km
1000 to 3000 ft
1500m to 5 km
500 to 1000 ft
800 to 1500m
200 to 500 ft
< 800m
< 200 ft
Symbols :   Thunderstorms  Fog  Heavy snow  Heavy precipitations  Wind > 20 kt






- Airport Elevation : 710 ft
- IATA code : FTW


KFTW - Fort Worth Meacham International

CURRENT METAR :
  • 231453Z 15011KT 10SM CLR 11/08 A3007 RMK AO2 SLP180 T01060083 53008 $

EXPIRED METARs :
  • 231353Z 14009KT 10SM CLR 09/08 A3005 RMK AO2 SLP174 T00940078 $
  • 231253Z AUTO 11007KT 10SM CLR 08/07 A3004 RMK AO2 SLP171 T00830067 $

TAF KFTW
Valid from the 23 at 15:00 until the 24 at 12:00 UTC


231440Z 2315/2412 17009KT P6SM OVC035
FM231600 18014KT P6SM BKN028
FM231800 17015KT P6SM SCT009 BKN018
TEMPO 2321/2401 4SM -RA BKN008
FM240100 17015KT 5SM BR VCSH SCT006 OVC009
FM240600 19017KT P6SM OVC012
FM240900 21016KT P6SM BKN040



MET'MAP, your aeronautical weather chart ! - Copyright ORBIFLY December 2007 - Disclaimer

ORBIFLY MET'MAP TEAM :

Programming & Development : Alexandra Zaïnal
Concept & original design : Baudouin d'Aumeries
Assistance for programming : Marc-Olivier Méhu
Technical & hardware support : Manuel Goepfert

Contact : metmap@orbifly.com




SOURCES & CREDITS :

   NOAA       Earth
Advisory